Aeroporto :
LOGIN :

Iscrizione | Disclaimer

   EN    FR    IT 

 










Sommario :    VFR   VFR Marginale   IFR   IFR Intensivo   IFR Molto Intensivo
Visibilità : 
Base nubi : 
>= 8 km
>= 3000ft
5 / 8 km
1000 / 3000 ft
1500m / 5 km
500 / 1000 ft
800 / 1500m
200 / 500 ft
< 800m
< 200 ft
Simboli :   Temporali  Nebbia  Neve Forte  Precipitazioni Forti  Vento > 20 kt
SIGMETs :   Varie  Temporali  Ghiacco  Turbolenza  Onda orograficha  Ceneri Vulcaniche






- Altitudine del aeroporto : 2026 ft
- Codice IATA : TOJ


LETO - Madrid Torrejon

ULTIMO METAR :
  • 210000Z 02008KT CAVOK 03/M02 Q1027 NOSIG

METARs OBSOLETI :
  • 202300Z 04007KT CAVOK 03/M00 Q1027 NOSIG
  • 202200Z 03008KT CAVOK 05/01 Q1026 NOSIG

TAF TAF LETO
Valido dal 21 a 00 ore il 22 a 00 ore UTC


202300Z 2100/2124 VRB04KT CAVOK TX18/2116Z TN01/2106Z
TEMPO 2100/2110 04010KT



MetMap, La meteo Aeronautica in un colpo d'occhio ! - Copyright ORBIFLY Dicembre 2007 - Disclaimer

ORBIFLY MET'MAP TEAM :

Programmazione e sviluppo : Alexandra Zaïnal
Concezione : Baudouin d'Aumeries
Aiuto per la programmazione : Marc-Olivier Méhu
Supporto tecnico e logistico : Manuel Goepfert
Aiuto per la traduzione : Arnaldo La Scala

Contatto : metmap@orbifly.com




FONTI E CREDITI :

   NOAA